Record high temperature 100.4°F Record low temperature 10.6°F Record high gust 40 mph Record high average 22.8 mph Record daily rain 11.65 in. Record low windchill 2.7°F Record high barometer 30.773 in. Record low barometer 29.184 in.
Daily high pressure 29.849 in. Daily low pressure 29.661 in. Daily low windchill 51.1°F Daily high heat index 56.8°F Daily high gust speed 9.0 mph NNW Daily high average speed 4.2 mph WSW
Forecast: mostly cloudy and cooler. precipitation ending within 6 hrs. windy with possible wind shift to the w, nw, or n.
On the Greenway Weather Data - Tigard OR
LAST READING AT TIME: 11:54 AM DATE: October 31 2014, time of next update: 11:55 am
Current Weather/Dry Current Temperature 52.7°F (11.5°C), Apparent temp 52.1°F
Maximum Temperature (since midnight)56.8°F at: 12:00 AM Minimum Temperature (since midnight)51.1°F at: 9:21 AM
Average windspeed (ten minute)0.9 mph Wind Direction (ten minute)SSW (199°)
Windchill Temperature 52.7°F Maximum Gust (last hour) 5 mph at: 11:32 AM
Maximum Gust (since midnight) 9 mph at: 5:37 AM Maximum 1 minute average (since midnight)4.2 mph at: 5:41 AM
Rainfall (last hour)0.00 in. (0.0 mm) Rainfall (since midnight)0.93 in. (23.6 mm) at 10:27 AM
Rainfall This month 7.09 in. (180.1 mm) Rainfall To date this year 7.09 in. (180.1 mm)
Maximum rain per minute (last hour)0.00 in/min Maximum rain per hour (last 6 hours)0.09 in/hour
Yesterdays rainfall 0.63 in DewPoint 50.7°F (Wet Bulb :51.7°F )
Humidity 93 %, Humidex 55.4°F Barometer corrected to msl29.848 in. (1010.8 hPa)
Pressure change +0.01 in. (last hour) Trend (last hour)STEADY
Pressure change (last 12 hours)+0.07 in Pressure change (last 6 hours)+0.16 in

This page is updated from recent data collected by a DAVIS VANTAGE PRO weather station Use the Reload or Refresh facility on your browser to retrieve the latest data.


Click here for the last 24 hour graph
Click here for the last 48 hour graph
Click here for the last 72 hour graph
Click here for the month to date graph


Weather report/Warning/Metars

PORTLAND-HILLSBORO AIRPORT, OR, United States (KHIO) 45-33N 122-57W 68M
Oct 31, 2014 - 01:53 PM EDT / 2014.10.31 1753 UTC
Wind: from the S (180 degrees) at 8 MPH (7 KT):0
Visibility: 10 mile(s):0
Sky conditions: overcast
Precipitation last hour: 0.01 inches
Temperature: 52.0 F (11.1 C)
Dew Point: 50.0 F (10.0 C)
Relative Humidity: 92%
Pressure (altimeter): 29.84 in. Hg (1010 hPa)
Pressure tendency: 0.06 inches (2.1 hPa) higher than three hours ago
ob: KHIO 311753Z 18007KT 10SM BKN008 BKN021 OVC030 11/10 A2984 RMK AO2 RAB13E30 SLP103 P0001 60041 T01110100 10117 20106 50021
cycle: 18
PORTLAND INTERNATIONAL  AIRPORT, OR, United States (KPDX) 45-35N 122-36W 7M
Oct 31, 2014 - 01:53 PM EDT / 2014.10.31 1753 UTC
Wind: from the S (190 degrees) at 7 MPH (6 KT):0
Visibility: 10 mile(s):0
Sky conditions: overcast
Weather: light rain
Precipitation last hour: A trace
Temperature: 53.1 F (11.7 C)
Dew Point: 52.0 F (11.1 C)
Relative Humidity: 96%
Pressure (altimeter): 29.85 in. Hg (1010 hPa)
Pressure tendency: 0.06 inches (2.1 hPa) higher than three hours ago
ob: KPDX 311753Z 19006KT 10SM -RA FEW008 BKN035 OVC050 12/11 A2985 RMK AO2 RAB37 SLP107 P0000 60049 T01170111 10122 20106 51021
cycle: 18
PORTLAND-TROUTDALE AIRPORT, OR, United States (KTTD) 45-33N 122-25W 14M
Oct 31, 2014 - 01:53 PM EDT / 2014.10.31 1753 UTC
Wind: Calm:0
Visibility: 10 mile(s):0
Sky conditions: overcast
Temperature: 53.1 F (11.7 C)
Dew Point: 50.0 F (10.0 C)
Relative Humidity: 89%
Pressure (altimeter): 29.84 in. Hg (1010 hPa)
Pressure tendency: 0.06 inches (2.2 hPa) higher than three hours ago
ob: KTTD 311753Z 00000KT 10SM FEW012 BKN028 OVC055 12/10 A2984 RMK AO2 SLP105 60040 T01170100 10133 20111 51022
cycle: 18
MCMINNVILLE MUNICIPAL AIRPORT , OR, United States (KMMV) 45-12N 123-08W 48M
Oct 31, 2014 - 01:53 PM EDT / 2014.10.31 1753 UTC
Wind: from the SSW (200 degrees) at 5 MPH (4 KT):0
Visibility: 10 mile(s):0
Sky conditions: overcast
Temperature: 53.1 F (11.7 C)
Dew Point: 50.0 F (10.0 C)
Relative Humidity: 89%
Pressure (altimeter): 29.85 in. Hg (1010 hPa)
Pressure tendency: 0.06 inches (2.2 hPa) higher than three hours ago
ob: KMMV 311753Z AUTO 20004KT 10SM FEW016 BKN039 OVC065 12/10 A2985 RMK AO2 SLP107 60018 T01170100 10122 20106 50022
cycle: 18
SALEM MCNARY FIELD, OR, United States (KSLE) 44-54N 123-00W 59M
Oct 31, 2014 - 01:56 PM EDT / 2014.10.31 1756 UTC
Wind: from the S (180 degrees) at 5 MPH (4 KT):0
Visibility: 10 mile(s):0
Sky conditions: mostly cloudy
Precipitation last hour: A trace
Temperature: 53.1 F (11.7 C)
Dew Point: 48.9 F (9.4 C)
Relative Humidity: 85%
Pressure (altimeter): 29.83 in. Hg (1010 hPa)
Pressure tendency: 0.01 inches (0.5 hPa) higher than three hours ago
ob: KSLE 311756Z 18004KT 10SM SCT018 BKN055 BKN070 12/09 A2983 RMK AO2 RAE1657 SLP102 P0000 60018 T01170094 10122 20106 53005
cycle: 18


Sunset at:
6:01 pm

Moonrise at:
2:39 pm 10/31/14

Moonset at:
12:21 am 10/31/14

First Quarter  31 October 2014
Full moon  6 November 2014
Last Quarter14 November 2014
New moon 22 November 2014
Moon age: 7 days,13 hours,50 minutes,52%
Hours of possible daylight today was 10:12



Use the RELOAD facility on your browser to retrieve the latest data.

Click here for current Fire weather info
Click here for the daily CLIMATOLOGICAL SUMMARY
Click here for a daily update of the averages/extremes to date for the month




Created by "Weather Display" software version 10.37R Build 81 at this start time/date 6:08 pm 10/22/2014




On The Greenway Weather Web Site

 
 
HELP US OUT
Help us keep this weather station on the web. for the Tigard / Portland internet users to use. If you would like to help, click the donate button below
 
This site is purely funded by donations and by myself (Ray Cooper)
Anything you can do will help keep this station on the net
Average cost per year is $665 to publish and host this site excluding the cost of the weather equipment
Buyastrostuff.com is kind enough to host our DNS and email at no cost.
THANKS GUYS & Gals for helping
Have a Question,or just want to talk. Contact me at:
Ray Cooper @ Buyastrostuff.com